sensor_id;sensor_type;location;lat;lon;timestamp;temperature;humidity
7399;DHT22;3740;50.700;7.184;2022-10-16T00:01:51;15.80;99.90
7399;DHT22;3740;50.700;7.184;2022-10-16T00:04:17;15.80;99.90
7399;DHT22;3740;50.700;7.184;2022-10-16T00:06:42;15.70;99.90
7399;DHT22;3740;50.700;7.184;2022-10-16T00:09:08;15.80;99.90
7399;DHT22;3740;50.700;7.184;2022-10-16T00:11:36;15.80;99.90
7399;DHT22;3740;50.700;7.184;2022-10-16T00:14:05;15.70;99.90
7399;DHT22;3740;50.700;7.184;2022-10-16T00:16:32;15.70;99.90
7399;DHT22;3740;50.700;7.184;2022-10-16T00:18:58;15.80;99.90
7399;DHT22;3740;50.700;7.184;2022-10-16T00:21:26;15.80;99.90
7399;DHT22;3740;50.700;7.184;2022-10-16T00:23:54;15.80;99.90
7399;DHT22;3740;50.700;7.184;2022-10-16T00:26:20;15.80;99.90
7399;DHT22;3740;50.700;7.184;2022-10-16T00:28:50;15.80;99.90
7399;DHT22;3740;50.700;7.184;2022-10-16T00:31:19;15.70;99.90
7399;DHT22;3740;50.700;7.184;2022-10-16T00:33:45;15.60;99.90
7399;DHT22;3740;50.700;7.184;2022-10-16T00:36:15;15.60;99.90
7399;DHT22;3740;50.700;7.184;2022-10-16T00:38:41;15.60;99.90
7399;DHT22;3740;50.700;7.184;2022-10-16T00:41:11;15.60;99.90
7399;DHT22;3740;50.700;7.184;2022-10-16T00:43:55;15.60;99.90
7399;DHT22;3740;50.700;7.184;2022-10-16T00:49:19;15.50;99.90
7399;DHT22;3740;50.700;7.184;2022-10-16T00:51:48;15.50;99.90
7399;DHT22;3740;50.700;7.184;2022-10-16T00:54:24;15.60;99.90
7399;DHT22;3740;50.700;7.184;2022-10-16T00:56:51;15.60;99.90
7399;DHT22;3740;50.700;7.184;2022-10-16T00:59:33;15.60;99.90
7399;DHT22;3740;50.700;7.184;2022-10-16T01:02:00;15.60;99.90
7399;DHT22;3740;50.700;7.184;2022-10-16T01:04:35;15.50;99.90
7399;DHT22;3740;50.700;7.184;2022-10-16T01:10:25;15.50;99.90
7399;DHT22;3740;50.700;7.184;2022-10-16T01:15:39;15.60;99.90
7399;DHT22;3740;50.700;7.184;2022-10-16T01:18:45;15.40;99.90
7399;DHT22;3740;50.700;7.184;2022-10-16T01:21:18;15.40;99.90
7399;DHT22;3740;50.700;7.184;2022-10-16T01:26:50;15.50;99.90
7399;DHT22;3740;50.700;7.184;2022-10-16T01:32:00;15.40;99.90
7399;DHT22;3740;50.700;7.184;2022-10-16T01:34:41;15.30;99.90
7399;DHT22;3740;50.700;7.184;2022-10-16T01:37:15;15.30;99.90
7399;DHT22;3740;50.700;7.184;2022-10-16T01:39:45;15.30;99.90
7399;DHT22;3740;50.700;7.184;2022-10-16T01:42:17;15.30;99.90
7399;DHT22;3740;50.700;7.184;2022-10-16T01:44:45;15.30;99.90
7399;DHT22;3740;50.700;7.184;2022-10-16T01:47:13;15.20;99.90
7399;DHT22;3740;50.700;7.184;2022-10-16T01:49:41;15.10;99.90
7399;DHT22;3740;50.700;7.184;2022-10-16T01:52:16;15.10;99.90
7399;DHT22;3740;50.700;7.184;2022-10-16T01:54:46;15.10;99.90
7399;DHT22;3740;50.700;7.184;2022-10-16T01:57:14;15.10;99.90
7399;DHT22;3740;50.700;7.184;2022-10-16T01:59:44;15.20;99.90
7399;DHT22;3740;50.700;7.184;2022-10-16T02:02:12;15.20;99.90
7399;DHT22;3740;50.700;7.184;2022-10-16T02:04:42;15.10;99.90
7399;DHT22;3740;50.700;7.184;2022-10-16T02:07:09;15.20;99.90
7399;DHT22;3740;50.700;7.184;2022-10-16T02:09:36;15.20;99.90
7399;DHT22;3740;50.700;7.184;2022-10-16T02:12:09;15.30;99.90
7399;DHT22;3740;50.700;7.184;2022-10-16T02:14:38;15.30;99.90
7399;DHT22;3740;50.700;7.184;2022-10-16T02:17:16;15.30;99.90
7399;DHT22;3740;50.700;7.184;2022-10-16T02:19:43;15.20;99.90
7399;DHT22;3740;50.700;7.184;2022-10-16T02:22:16;15.20;99.90
7399;DHT22;3740;50.700;7.184;2022-10-16T02:29:54;15.40;99.90
7399;DHT22;3740;50.700;7.184;2022-10-16T02:32:27;15.40;99.90
7399;DHT22;3740;50.700;7.184;2022-10-16T02:34:56;15.40;99.90
7399;DHT22;3740;50.700;7.184;2022-10-16T02:37:23;15.30;99.90
7399;DHT22;3740;50.700;7.184;2022-10-16T02:39:50;15.40;99.90
7399;DHT22;3740;50.700;7.184;2022-10-16T02:42:18;15.40;99.90
7399;DHT22;3740;50.700;7.184;2022-10-16T02:44:44;15.50;99.90
7399;DHT22;3740;50.700;7.184;2022-10-16T02:47:09;15.50;99.90
7399;DHT22;3740;50.700;7.184;2022-10-16T02:49:35;15.50;99.90
7399;DHT22;3740;50.700;7.184;2022-10-16T02:52:00;15.40;99.90
7399;DHT22;3740;50.700;7.184;2022-10-16T02:54:26;15.50;99.90
7399;DHT22;3740;50.700;7.184;2022-10-16T02:56:52;15.50;99.90
7399;DHT22;3740;50.700;7.184;2022-10-16T02:59:17;15.60;99.90
7399;DHT22;3740;50.700;7.184;2022-10-16T03:01:43;15.70;99.90
7399;DHT22;3740;50.700;7.184;2022-10-16T03:04:09;15.60;99.90
7399;DHT22;3740;50.700;7.184;2022-10-16T03:06:34;15.70;99.90
7399;DHT22;3740;50.700;7.184;2022-10-16T03:09:00;15.60;99.90
7399;DHT22;3740;50.700;7.184;2022-10-16T03:11:26;15.60;99.90
7399;DHT22;3740;50.700;7.184;2022-10-16T03:13:51;15.60;99.90
7399;DHT22;3740;50.700;7.184;2022-10-16T03:16:17;15.60;99.90
7399;DHT22;3740;50.700;7.184;2022-10-16T03:18:43;15.70;99.90
7399;DHT22;3740;50.700;7.184;2022-10-16T03:21:08;15.70;99.90
7399;DHT22;3740;50.700;7.184;2022-10-16T03:23:34;15.70;99.90
7399;DHT22;3740;50.700;7.184;2022-10-16T03:26:00;15.60;99.90
7399;DHT22;3740;50.700;7.184;2022-10-16T03:28:25;15.60;99.90
7399;DHT22;3740;50.700;7.184;2022-10-16T03:30:51;15.60;99.90
7399;DHT22;3740;50.700;7.184;2022-10-16T03:33:16;15.60;99.90
7399;DHT22;3740;50.700;7.184;2022-10-16T03:35:42;15.60;99.90
7399;DHT22;3740;50.700;7.184;2022-10-16T03:38:08;15.60;99.90
7399;DHT22;3740;50.700;7.184;2022-10-16T03:40:33;15.60;99.90
7399;DHT22;3740;50.700;7.184;2022-10-16T03:42:59;15.50;99.90
7399;DHT22;3740;50.700;7.184;2022-10-16T03:45:25;15.60;99.90
7399;DHT22;3740;50.700;7.184;2022-10-16T03:47:51;15.60;99.90
7399;DHT22;3740;50.700;7.184;2022-10-16T03:50:17;15.60;99.90
7399;DHT22;3740;50.700;7.184;2022-10-16T03:52:42;15.70;99.90
7399;DHT22;3740;50.700;7.184;2022-10-16T03:55:08;15.60;99.90
7399;DHT22;3740;50.700;7.184;2022-10-16T03:57:34;15.70;99.90
7399;DHT22;3740;50.700;7.184;2022-10-16T03:59:59;15.70;99.90
7399;DHT22;3740;50.700;7.184;2022-10-16T04:02:25;15.70;99.90
7399;DHT22;3740;50.700;7.184;2022-10-16T04:04:50;15.70;99.90
7399;DHT22;3740;50.700;7.184;2022-10-16T04:07:16;15.70;99.90
7399;DHT22;3740;50.700;7.184;2022-10-16T04:09:42;15.70;99.90
7399;DHT22;3740;50.700;7.184;2022-10-16T04:12:08;15.70;99.90
7399;DHT22;3740;50.700;7.184;2022-10-16T04:14:33;15.70;99.90
7399;DHT22;3740;50.700;7.184;2022-10-16T04:16:59;15.70;99.90
7399;DHT22;3740;50.700;7.184;2022-10-16T04:19:25;15.70;99.90
7399;DHT22;3740;50.700;7.184;2022-10-16T04:21:50;15.70;99.90
7399;DHT22;3740;50.700;7.184;2022-10-16T04:24:17;15.70;99.90
7399;DHT22;3740;50.700;7.184;2022-10-16T04:26:42;15.70;99.90
7399;DHT22;3740;50.700;7.184;2022-10-16T04:29:08;15.70;99.90
7399;DHT22;3740;50.700;7.184;2022-10-16T04:31:34;15.70;99.90
7399;DHT22;3740;50.700;7.184;2022-10-16T04:33:59;15.70;99.90
7399;DHT22;3740;50.700;7.184;2022-10-16T04:36:25;15.70;99.90
7399;DHT22;3740;50.700;7.184;2022-10-16T04:38:50;15.70;99.90
7399;DHT22;3740;50.700;7.184;2022-10-16T04:41:16;15.80;99.90
7399;DHT22;3740;50.700;7.184;2022-10-16T04:43:42;15.70;99.90
7399;DHT22;3740;50.700;7.184;2022-10-16T04:46:08;15.70;99.90
7399;DHT22;3740;50.700;7.184;2022-10-16T04:48:35;15.70;99.90
7399;DHT22;3740;50.700;7.184;2022-10-16T04:51:01;15.70;99.90
7399;DHT22;3740;50.700;7.184;2022-10-16T04:53:28;15.70;99.90
7399;DHT22;3740;50.700;7.184;2022-10-16T04:55:55;15.70;99.90
7399;DHT22;3740;50.700;7.184;2022-10-16T04:58:22;15.80;99.90
7399;DHT22;3740;50.700;7.184;2022-10-16T05:00:48;15.80;99.90
7399;DHT22;3740;50.700;7.184;2022-10-16T05:03:14;15.80;99.90
7399;DHT22;3740;50.700;7.184;2022-10-16T05:05:44;15.80;99.90
7399;DHT22;3740;50.700;7.184;2022-10-16T05:08:11;15.70;99.90
7399;DHT22;3740;50.700;7.184;2022-10-16T05:10:37;15.70;99.90
7399;DHT22;3740;50.700;7.184;2022-10-16T05:13:03;15.70;99.90
7399;DHT22;3740;50.700;7.184;2022-10-16T05:15:28;15.70;99.90
7399;DHT22;3740;50.700;7.184;2022-10-16T05:17:55;15.60;99.90
7399;DHT22;3740;50.700;7.184;2022-10-16T05:20:22;15.60;99.90
7399;DHT22;3740;50.700;7.184;2022-10-16T05:22:48;15.60;99.90
7399;DHT22;3740;50.700;7.184;2022-10-16T05:25:13;15.60;99.90
7399;DHT22;3740;50.700;7.184;2022-10-16T05:27:39;15.60;99.90
7399;DHT22;3740;50.700;7.184;2022-10-16T05:30:05;15.70;99.90
7399;DHT22;3740;50.700;7.184;2022-10-16T05:32:31;15.80;99.90
7399;DHT22;3740;50.700;7.184;2022-10-16T05:34:57;15.80;99.90
7399;DHT22;3740;50.700;7.184;2022-10-16T05:37:25;15.80;99.90
7399;DHT22;3740;50.700;7.184;2022-10-16T05:39:52;15.80;99.90
7399;DHT22;3740;50.700;7.184;2022-10-16T05:42:17;15.80;99.90
7399;DHT22;3740;50.700;7.184;2022-10-16T05:44:43;15.80;99.90
7399;DHT22;3740;50.700;7.184;2022-10-16T05:47:09;15.80;99.90
7399;DHT22;3740;50.700;7.184;2022-10-16T05:49:36;15.80;99.90
7399;DHT22;3740;50.700;7.184;2022-10-16T05:52:01;15.80;99.90
7399;DHT22;3740;50.700;7.184;2022-10-16T05:54:27;15.80;99.90
7399;DHT22;3740;50.700;7.184;2022-10-16T05:56:52;15.80;99.90
7399;DHT22;3740;50.700;7.184;2022-10-16T05:59:18;15.80;99.90
7399;DHT22;3740;50.700;7.184;2022-10-16T06:01:44;15.80;99.90
7399;DHT22;3740;50.700;7.184;2022-10-16T06:04:09;15.80;99.90
7399;DHT22;3740;50.700;7.184;2022-10-16T06:06:35;15.90;99.90
7399;DHT22;3740;50.700;7.184;2022-10-16T06:09:02;16.00;99.90
7399;DHT22;3740;50.700;7.184;2022-10-16T06:11:32;16.00;99.90
7399;DHT22;3740;50.700;7.184;2022-10-16T06:14:00;16.10;99.90
7399;DHT22;3740;50.700;7.184;2022-10-16T06:16:28;16.10;99.90
7399;DHT22;3740;50.700;7.184;2022-10-16T06:18:55;16.10;99.90
7399;DHT22;3740;50.700;7.184;2022-10-16T06:21:24;16.00;99.90
7399;DHT22;3740;50.700;7.184;2022-10-16T06:23:54;16.00;99.90
7399;DHT22;3740;50.700;7.184;2022-10-16T06:26:21;16.00;99.90
7399;DHT22;3740;50.700;7.184;2022-10-16T06:28:48;16.00;99.90
7399;DHT22;3740;50.700;7.184;2022-10-16T06:31:14;16.00;99.90
7399;DHT22;3740;50.700;7.184;2022-10-16T06:33:40;16.10;99.90
7399;DHT22;3740;50.700;7.184;2022-10-16T06:36:07;16.10;99.90
7399;DHT22;3740;50.700;7.184;2022-10-16T06:38:33;16.10;99.90
7399;DHT22;3740;50.700;7.184;2022-10-16T06:40:59;15.90;99.90
7399;DHT22;3740;50.700;7.184;2022-10-16T06:43:25;16.00;99.90
7399;DHT22;3740;50.700;7.184;2022-10-16T06:45:52;16.10;99.90
7399;DHT22;3740;50.700;7.184;2022-10-16T06:48:18;16.10;99.90
7399;DHT22;3740;50.700;7.184;2022-10-16T06:50:44;16.00;99.90
7399;DHT22;3740;50.700;7.184;2022-10-16T06:53:09;16.00;99.90
7399;DHT22;3740;50.700;7.184;2022-10-16T06:55:35;15.90;99.90
7399;DHT22;3740;50.700;7.184;2022-10-16T06:58:00;15.90;99.90
7399;DHT22;3740;50.700;7.184;2022-10-16T07:00:26;15.80;99.90
7399;DHT22;3740;50.700;7.184;2022-10-16T07:02:52;15.70;99.90
7399;DHT22;3740;50.700;7.184;2022-10-16T07:05:17;15.80;99.90
7399;DHT22;3740;50.700;7.184;2022-10-16T07:07:43;15.90;99.90
7399;DHT22;3740;50.700;7.184;2022-10-16T07:10:09;16.10;99.90
7399;DHT22;3740;50.700;7.184;2022-10-16T07:12:34;16.10;99.90
7399;DHT22;3740;50.700;7.184;2022-10-16T07:15:00;16.20;99.90
7399;DHT22;3740;50.700;7.184;2022-10-16T07:17:25;16.20;99.90
7399;DHT22;3740;50.700;7.184;2022-10-16T07:19:51;16.30;99.90
7399;DHT22;3740;50.700;7.184;2022-10-16T07:22:18;16.30;99.90
7399;DHT22;3740;50.700;7.184;2022-10-16T07:24:44;16.30;99.90
7399;DHT22;3740;50.700;7.184;2022-10-16T07:27:10;16.30;99.90
7399;DHT22;3740;50.700;7.184;2022-10-16T07:29:35;16.40;99.90
7399;DHT22;3740;50.700;7.184;2022-10-16T07:32:01;16.30;99.90
7399;DHT22;3740;50.700;7.184;2022-10-16T07:34:27;16.30;99.90
7399;DHT22;3740;50.700;7.184;2022-10-16T07:36:53;16.40;99.90
7399;DHT22;3740;50.700;7.184;2022-10-16T07:39:18;16.40;99.90
7399;DHT22;3740;50.700;7.184;2022-10-16T07:41:44;16.40;99.90
7399;DHT22;3740;50.700;7.184;2022-10-16T07:44:10;16.40;99.90
7399;DHT22;3740;50.700;7.184;2022-10-16T07:46:35;16.50;99.90
7399;DHT22;3740;50.700;7.184;2022-10-16T07:49:02;16.50;99.90
7399;DHT22;3740;50.700;7.184;2022-10-16T07:51:28;16.60;99.90
7399;DHT22;3740;50.700;7.184;2022-10-16T07:53:54;16.60;99.90
7399;DHT22;3740;50.700;7.184;2022-10-16T07:56:21;16.70;99.90
7399;DHT22;3740;50.700;7.184;2022-10-16T07:58:46;16.70;99.90
7399;DHT22;3740;50.700;7.184;2022-10-16T08:01:15;16.70;99.90
7399;DHT22;3740;50.700;7.184;2022-10-16T08:03:52;16.80;99.90
7399;DHT22;3740;50.700;7.184;2022-10-16T08:06:19;16.90;99.90
7399;DHT22;3740;50.700;7.184;2022-10-16T08:08:45;17.00;99.90
7399;DHT22;3740;50.700;7.184;2022-10-16T08:11:10;17.00;99.90
7399;DHT22;3740;50.700;7.184;2022-10-16T08:13:36;16.90;99.90
7399;DHT22;3740;50.700;7.184;2022-10-16T08:16:03;17.00;99.90
7399;DHT22;3740;50.700;7.184;2022-10-16T08:18:34;17.00;99.90
7399;DHT22;3740;50.700;7.184;2022-10-16T08:21:00;17.00;99.90
7399;DHT22;3740;50.700;7.184;2022-10-16T08:23:27;17.10;99.90
7399;DHT22;3740;50.700;7.184;2022-10-16T08:25:55;17.10;99.90
7399;DHT22;3740;50.700;7.184;2022-10-16T08:28:22;17.00;99.90
7399;DHT22;3740;50.700;7.184;2022-10-16T08:30:48;17.00;99.90
7399;DHT22;3740;50.700;7.184;2022-10-16T08:33:14;16.90;99.90
7399;DHT22;3740;50.700;7.184;2022-10-16T08:35:39;17.00;99.90
7399;DHT22;3740;50.700;7.184;2022-10-16T08:38:06;17.00;99.90
7399;DHT22;3740;50.700;7.184;2022-10-16T08:40:34;17.10;99.90
7399;DHT22;3740;50.700;7.184;2022-10-16T08:50:31;17.60;99.90
7399;DHT22;3740;50.700;7.184;2022-10-16T08:52:58;17.70;99.90
7399;DHT22;3740;50.700;7.184;2022-10-16T08:55:43;17.90;99.90
7399;DHT22;3740;50.700;7.184;2022-10-16T08:58:18;18.10;99.90
7399;DHT22;3740;50.700;7.184;2022-10-16T09:00:51;18.30;99.90
7399;DHT22;3740;50.700;7.184;2022-10-16T09:03:37;18.30;99.90
7399;DHT22;3740;50.700;7.184;2022-10-16T09:11:36;18.30;99.90
7399;DHT22;3740;50.700;7.184;2022-10-16T09:14:25;18.20;99.90
7399;DHT22;3740;50.700;7.184;2022-10-16T09:17:06;18.10;99.90
7399;DHT22;3740;50.700;7.184;2022-10-16T09:19:44;18.20;99.90
7399;DHT22;3740;50.700;7.184;2022-10-16T09:22:14;18.20;99.90
7399;DHT22;3740;50.700;7.184;2022-10-16T09:24:40;18.30;99.90
7399;DHT22;3740;50.700;7.184;2022-10-16T09:27:11;18.40;99.90
7399;DHT22;3740;50.700;7.184;2022-10-16T09:29:37;18.40;99.90
7399;DHT22;3740;50.700;7.184;2022-10-16T09:32:15;18.50;99.90
7399;DHT22;3740;50.700;7.184;2022-10-16T09:34:47;18.60;99.90
7399;DHT22;3740;50.700;7.184;2022-10-16T09:37:17;18.70;99.90
7399;DHT22;3740;50.700;7.184;2022-10-16T09:39:54;18.70;99.90
7399;DHT22;3740;50.700;7.184;2022-10-16T09:42:31;18.90;99.90
7399;DHT22;3740;50.700;7.184;2022-10-16T09:44:57;18.90;99.90
7399;DHT22;3740;50.700;7.184;2022-10-16T09:47:24;18.90;99.90
7399;DHT22;3740;50.700;7.184;2022-10-16T09:50:00;19.00;99.90
7399;DHT22;3740;50.700;7.184;2022-10-16T09:52:28;19.20;99.90
7399;DHT22;3740;50.700;7.184;2022-10-16T09:55:12;19.50;99.90
7399;DHT22;3740;50.700;7.184;2022-10-16T09:57:54;19.80;99.90
7399;DHT22;3740;50.700;7.184;2022-10-16T10:00:23;20.00;99.90
7399;DHT22;3740;50.700;7.184;2022-10-16T10:02:49;20.30;99.90
7399;DHT22;3740;50.700;7.184;2022-10-16T10:05:29;20.90;99.90
7399;DHT22;3740;50.700;7.184;2022-10-16T10:07:58;22.40;99.90
7399;DHT22;3740;50.700;7.184;2022-10-16T10:10:30;23.90;99.90
7399;DHT22;3740;50.700;7.184;2022-10-16T10:12:56;25.20;99.90
7399;DHT22;3740;50.700;7.184;2022-10-16T10:15:22;26.60;99.90
7399;DHT22;3740;50.700;7.184;2022-10-16T10:17:54;28.40;98.20
7399;DHT22;3740;50.700;7.184;2022-10-16T10:20:25;29.60;94.10
7399;DHT22;3740;50.700;7.184;2022-10-16T10:22:57;30.10;92.30
7399;DHT22;3740;50.700;7.184;2022-10-16T10:28:22;30.70;90.00
7399;DHT22;3740;50.700;7.184;2022-10-16T10:31:01;32.20;86.40
7399;DHT22;3740;50.700;7.184;2022-10-16T10:33:38;33.30;79.30
7399;DHT22;3740;50.700;7.184;2022-10-16T10:41:53;35.30;70.50
7399;DHT22;3740;50.700;7.184;2022-10-16T10:51:25;34.80;65.80
7399;DHT22;3740;50.700;7.184;2022-10-16T10:53:57;35.30;68.40
7399;DHT22;3740;50.700;7.184;2022-10-16T10:59:32;35.30;66.90
7399;DHT22;3740;50.700;7.184;2022-10-16T11:05:20;34.80;63.00
7399;DHT22;3740;50.700;7.184;2022-10-16T11:07:58;34.50;63.60
7399;DHT22;3740;50.700;7.184;2022-10-16T11:10:28;34.00;63.70
7399;DHT22;3740;50.700;7.184;2022-10-16T11:15:39;34.20;62.00
7399;DHT22;3740;50.700;7.184;2022-10-16T11:18:19;33.70;61.70
7399;DHT22;3740;50.700;7.184;2022-10-16T11:20:53;33.50;62.60
7399;DHT22;3740;50.700;7.184;2022-10-16T11:26:16;33.70;61.70
7399;DHT22;3740;50.700;7.184;2022-10-16T11:28:54;33.00;62.30
7399;DHT22;3740;50.700;7.184;2022-10-16T11:34:15;31.80;67.20
7399;DHT22;3740;50.700;7.184;2022-10-16T11:36:56;31.50;67.10
7399;DHT22;3740;50.700;7.184;2022-10-16T11:39:26;31.30;69.90
7399;DHT22;3740;50.700;7.184;2022-10-16T11:42:07;31.60;65.90
7399;DHT22;3740;50.700;7.184;2022-10-16T11:45:00;31.50;69.40
7399;DHT22;3740;50.700;7.184;2022-10-16T11:55:54;31.90;68.10
7399;DHT22;3740;50.700;7.184;2022-10-16T11:58:31;31.20;69.70
7399;DHT22;3740;50.700;7.184;2022-10-16T12:01:22;29.90;71.70
7399;DHT22;3740;50.700;7.184;2022-10-16T12:04:03;29.00;74.50
7399;DHT22;3740;50.700;7.184;2022-10-16T12:09:32;27.10;78.80
7399;DHT22;3740;50.700;7.184;2022-10-16T12:11:59;26.70;82.10
7399;DHT22;3740;50.700;7.184;2022-10-16T12:17:02;25.60;86.10
7399;DHT22;3740;50.700;7.184;2022-10-16T12:19:29;25.20;88.80
7399;DHT22;3740;50.700;7.184;2022-10-16T12:21:59;24.90;90.50
7399;DHT22;3740;50.700;7.184;2022-10-16T12:24:39;24.60;91.70
7399;DHT22;3740;50.700;7.184;2022-10-16T12:27:30;24.30;92.10
7399;DHT22;3740;50.700;7.184;2022-10-16T12:30:01;24.00;92.80
7399;DHT22;3740;50.700;7.184;2022-10-16T12:32:36;23.70;93.60
7399;DHT22;3740;50.700;7.184;2022-10-16T12:35:04;23.40;94.50
7399;DHT22;3740;50.700;7.184;2022-10-16T12:37:36;23.30;95.60
7399;DHT22;3740;50.700;7.184;2022-10-16T12:40:32;23.10;95.90
7399;DHT22;3740;50.700;7.184;2022-10-16T12:42:59;23.00;98.40
7399;DHT22;3740;50.700;7.184;2022-10-16T12:45:35;23.00;99.90
7399;DHT22;3740;50.700;7.184;2022-10-16T12:48:03;23.00;99.90
7399;DHT22;3740;50.700;7.184;2022-10-16T12:50:38;22.90;99.80
7399;DHT22;3740;50.700;7.184;2022-10-16T12:53:18;22.70;99.70
7399;DHT22;3740;50.700;7.184;2022-10-16T12:58:33;22.60;99.90
7399;DHT22;3740;50.700;7.184;2022-10-16T13:01:20;22.40;99.90
7399;DHT22;3740;50.700;7.184;2022-10-16T13:15:17;22.50;99.90
7399;DHT22;3740;50.700;7.184;2022-10-16T13:23:06;22.20;99.90
7399;DHT22;3740;50.700;7.184;2022-10-16T13:26:22;22.20;99.90
7399;DHT22;3740;50.700;7.184;2022-10-16T13:28:40;22.00;99.90
7399;DHT22;3740;50.700;7.184;2022-10-16T13:31:23;21.90;99.90
7399;DHT22;3740;50.700;7.184;2022-10-16T13:33:54;21.80;99.90
7399;DHT22;3740;50.700;7.184;2022-10-16T13:36:34;21.80;99.90
7399;DHT22;3740;50.700;7.184;2022-10-16T13:39:06;21.80;99.90
7399;DHT22;3740;50.700;7.184;2022-10-16T13:41:33;21.80;99.90
7399;DHT22;3740;50.700;7.184;2022-10-16T13:43:59;21.70;99.90
7399;DHT22;3740;50.700;7.184;2022-10-16T13:46:25;21.70;99.90
7399;DHT22;3740;50.700;7.184;2022-10-16T13:49:02;21.70;99.90
7399;DHT22;3740;50.700;7.184;2022-10-16T13:51:28;21.70;99.90
7399;DHT22;3740;50.700;7.184;2022-10-16T13:53:57;21.80;99.90
7399;DHT22;3740;50.700;7.184;2022-10-16T13:56:29;21.80;99.90
7399;DHT22;3740;50.700;7.184;2022-10-16T13:59:05;22.00;99.90
7399;DHT22;3740;50.700;7.184;2022-10-16T14:01:42;22.10;99.90
7399;DHT22;3740;50.700;7.184;2022-10-16T14:04:11;22.10;99.90
7399;DHT22;3740;50.700;7.184;2022-10-16T14:06:41;22.00;99.90
7399;DHT22;3740;50.700;7.184;2022-10-16T14:09:34;21.90;99.90
7399;DHT22;3740;50.700;7.184;2022-10-16T14:12:06;21.80;99.90
7399;DHT22;3740;50.700;7.184;2022-10-16T14:14:42;21.80;99.90
7399;DHT22;3740;50.700;7.184;2022-10-16T14:17:26;21.70;99.90
7399;DHT22;3740;50.700;7.184;2022-10-16T14:19:54;21.70;99.90
7399;DHT22;3740;50.700;7.184;2022-10-16T14:22:36;21.70;99.90
7399;DHT22;3740;50.700;7.184;2022-10-16T14:30:35;21.30;99.90
7399;DHT22;3740;50.700;7.184;2022-10-16T14:33:04;21.30;99.90
7399;DHT22;3740;50.700;7.184;2022-10-16T14:35:38;21.30;99.90
7399;DHT22;3740;50.700;7.184;2022-10-16T14:38:06;21.30;99.90
7399;DHT22;3740;50.700;7.184;2022-10-16T14:40:38;21.30;99.90
7399;DHT22;3740;50.700;7.184;2022-10-16T14:43:04;21.30;99.90
7399;DHT22;3740;50.700;7.184;2022-10-16T14:45:33;21.20;99.90
7399;DHT22;3740;50.700;7.184;2022-10-16T14:48:17;21.30;99.90
7399;DHT22;3740;50.700;7.184;2022-10-16T14:50:44;21.20;99.90
7399;DHT22;3740;50.700;7.184;2022-10-16T14:53:14;21.20;99.90
7399;DHT22;3740;50.700;7.184;2022-10-16T14:55:40;21.20;99.90
7399;DHT22;3740;50.700;7.184;2022-10-16T15:01:29;21.10;99.90
7399;DHT22;3740;50.700;7.184;2022-10-16T15:03:54;21.00;99.90
7399;DHT22;3740;50.700;7.184;2022-10-16T15:06:21;21.10;99.90
7399;DHT22;3740;50.700;7.184;2022-10-16T15:08:47;21.00;99.90
7399;DHT22;3740;50.700;7.184;2022-10-16T15:11:18;21.00;99.90
7399;DHT22;3740;50.700;7.184;2022-10-16T15:13:44;21.00;99.90
7399;DHT22;3740;50.700;7.184;2022-10-16T15:16:14;20.90;99.90
7399;DHT22;3740;50.700;7.184;2022-10-16T15:18:40;20.80;99.90
7399;DHT22;3740;50.700;7.184;2022-10-16T15:21:06;20.80;99.90
7399;DHT22;3740;50.700;7.184;2022-10-16T15:23:32;20.70;99.90
7399;DHT22;3740;50.700;7.184;2022-10-16T15:25:58;20.70;99.90
7399;DHT22;3740;50.700;7.184;2022-10-16T15:28:25;20.70;99.90
7399;DHT22;3740;50.700;7.184;2022-10-16T15:30:55;20.60;99.90
7399;DHT22;3740;50.700;7.184;2022-10-16T15:33:24;20.60;99.90
7399;DHT22;3740;50.700;7.184;2022-10-16T15:35:51;20.50;99.90
7399;DHT22;3740;50.700;7.184;2022-10-16T15:38:19;20.40;99.90
7399;DHT22;3740;50.700;7.184;2022-10-16T15:40:46;20.30;99.90
7399;DHT22;3740;50.700;7.184;2022-10-16T15:43:12;20.30;99.90
7399;DHT22;3740;50.700;7.184;2022-10-16T15:45:37;20.10;99.90
7399;DHT22;3740;50.700;7.184;2022-10-16T15:48:03;20.10;99.90
7399;DHT22;3740;50.700;7.184;2022-10-16T15:50:30;20.00;99.90
7399;DHT22;3740;50.700;7.184;2022-10-16T15:52:56;19.90;99.90
7399;DHT22;3740;50.700;7.184;2022-10-16T15:55:22;19.80;99.90
7399;DHT22;3740;50.700;7.184;2022-10-16T15:57:52;19.80;99.90
7399;DHT22;3740;50.700;7.184;2022-10-16T16:00:19;19.80;99.90
7399;DHT22;3740;50.700;7.184;2022-10-16T16:02:51;19.70;99.90
7399;DHT22;3740;50.700;7.184;2022-10-16T16:05:17;19.60;99.90
7399;DHT22;3740;50.700;7.184;2022-10-16T16:07:43;19.60;99.90
7399;DHT22;3740;50.700;7.184;2022-10-16T16:10:11;19.70;99.90
7399;DHT22;3740;50.700;7.184;2022-10-16T16:12:38;19.70;99.90
7399;DHT22;3740;50.700;7.184;2022-10-16T16:15:05;19.70;99.90
7399;DHT22;3740;50.700;7.184;2022-10-16T16:17:33;19.70;99.90
7399;DHT22;3740;50.700;7.184;2022-10-16T16:19:59;19.60;99.90
7399;DHT22;3740;50.700;7.184;2022-10-16T16:22:24;19.60;99.90
7399;DHT22;3740;50.700;7.184;2022-10-16T16:24:50;19.60;99.90
7399;DHT22;3740;50.700;7.184;2022-10-16T16:27:15;19.60;99.90
7399;DHT22;3740;50.700;7.184;2022-10-16T16:29:41;19.60;99.90
7399;DHT22;3740;50.700;7.184;2022-10-16T16:32:07;19.50;99.90
7399;DHT22;3740;50.700;7.184;2022-10-16T16:34:32;19.50;99.90
7399;DHT22;3740;50.700;7.184;2022-10-16T16:36:58;19.50;99.90
7399;DHT22;3740;50.700;7.184;2022-10-16T16:39:24;19.40;99.90
7399;DHT22;3740;50.700;7.184;2022-10-16T16:41:50;19.40;99.90
7399;DHT22;3740;50.700;7.184;2022-10-16T16:44:16;19.40;99.90
7399;DHT22;3740;50.700;7.184;2022-10-16T16:46:43;19.40;99.90
7399;DHT22;3740;50.700;7.184;2022-10-16T16:49:11;19.30;99.90
7399;DHT22;3740;50.700;7.184;2022-10-16T16:51:39;19.30;99.90
7399;DHT22;3740;50.700;7.184;2022-10-16T16:54:05;19.20;99.90
7399;DHT22;3740;50.700;7.184;2022-10-16T16:56:32;19.20;99.90
7399;DHT22;3740;50.700;7.184;2022-10-16T16:58:58;19.20;99.90
7399;DHT22;3740;50.700;7.184;2022-10-16T17:01:25;19.20;99.90
7399;DHT22;3740;50.700;7.184;2022-10-16T17:03:53;19.10;99.90
7399;DHT22;3740;50.700;7.184;2022-10-16T17:06:21;19.10;99.90
7399;DHT22;3740;50.700;7.184;2022-10-16T17:08:58;19.50;99.90
7399;DHT22;3740;50.700;7.184;2022-10-16T17:11:26;19.00;99.90
7399;DHT22;3740;50.700;7.184;2022-10-16T17:13:53;19.10;99.90
7399;DHT22;3740;50.700;7.184;2022-10-16T17:16:20;19.10;99.90
7399;DHT22;3740;50.700;7.184;2022-10-16T17:18:46;19.10;99.90
7399;DHT22;3740;50.700;7.184;2022-10-16T17:21:12;19.10;99.90
7399;DHT22;3740;50.700;7.184;2022-10-16T17:23:38;19.10;99.90
7399;DHT22;3740;50.700;7.184;2022-10-16T17:26:10;19.10;99.90
7399;DHT22;3740;50.700;7.184;2022-10-16T17:28:36;19.00;99.90
7399;DHT22;3740;50.700;7.184;2022-10-16T17:31:16;19.00;99.90
7399;DHT22;3740;50.700;7.184;2022-10-16T17:33:43;19.00;99.90
7399;DHT22;3740;50.700;7.184;2022-10-16T17:36:09;19.00;99.90
7399;DHT22;3740;50.700;7.184;2022-10-16T17:38:35;19.00;99.90
7399;DHT22;3740;50.700;7.184;2022-10-16T17:41:23;19.00;99.90
7399;DHT22;3740;50.700;7.184;2022-10-16T17:43:50;19.00;99.90
7399;DHT22;3740;50.700;7.184;2022-10-16T17:46:19;18.90;99.90
7399;DHT22;3740;50.700;7.184;2022-10-16T17:48:47;18.90;99.90
7399;DHT22;3740;50.700;7.184;2022-10-16T17:51:16;18.80;99.90
7399;DHT22;3740;50.700;7.184;2022-10-16T17:53:42;18.80;99.90
7399;DHT22;3740;50.700;7.184;2022-10-16T17:56:12;18.70;99.90
7399;DHT22;3740;50.700;7.184;2022-10-16T17:58:39;18.70;99.90
7399;DHT22;3740;50.700;7.184;2022-10-16T18:01:17;18.70;99.90